sensor_id;sensor_type;location;lat;lon;timestamp;P1;durP1;ratioP1;P2;durP2;ratioP2
55292;SDS011;41157;53.560;10.098;2022-07-23T00:00:34;3.45;;;1.40;;
55292;SDS011;41157;53.560;10.098;2022-07-23T00:03:00;2.33;;;1.10;;
55292;SDS011;41157;53.560;10.098;2022-07-23T00:05:26;3.15;;;1.10;;
55292;SDS011;41157;53.560;10.098;2022-07-23T00:07:52;2.53;;;1.20;;
55292;SDS011;41157;53.560;10.098;2022-07-23T00:10:18;2.95;;;1.17;;
55292;SDS011;41157;53.560;10.098;2022-07-23T00:12:44;2.58;;;1.20;;
55292;SDS011;41157;53.560;10.098;2022-07-23T00:15:10;4.55;;;1.27;;
55292;SDS011;41157;53.560;10.098;2022-07-23T00:17:36;2.70;;;1.45;;
55292;SDS011;41157;53.560;10.098;2022-07-23T00:20:03;3.58;;;1.55;;
55292;SDS011;41157;53.560;10.098;2022-07-23T00:22:29;2.10;;;1.30;;
55292;SDS011;41157;53.560;10.098;2022-07-23T00:24:55;2.67;;;1.27;;
55292;SDS011;41157;53.560;10.098;2022-07-23T00:27:21;1.20;;;1.10;;
55292;SDS011;41157;53.560;10.098;2022-07-23T00:29:47;1.88;;;1.10;;
55292;SDS011;41157;53.560;10.098;2022-07-23T00:32:13;4.22;;;1.20;;
55292;SDS011;41157;53.560;10.098;2022-07-23T00:34:39;1.63;;;1.08;;
55292;SDS011;41157;53.560;10.098;2022-07-23T00:37:05;3.45;;;0.98;;
55292;SDS011;41157;53.560;10.098;2022-07-23T00:39:31;1.25;;;0.88;;
55292;SDS011;41157;53.560;10.098;2022-07-23T00:41:57;2.88;;;0.80;;
55292;SDS011;41157;53.560;10.098;2022-07-23T00:44:24;1.85;;;1.00;;
55292;SDS011;41157;53.560;10.098;2022-07-23T00:46:52;3.40;;;1.00;;
55292;SDS011;41157;53.560;10.098;2022-07-23T00:49:26;7.68;;;1.20;;
55292;SDS011;41157;53.560;10.098;2022-07-23T00:51:53;1.45;;;1.00;;
55292;SDS011;41157;53.560;10.098;2022-07-23T00:54:19;1.45;;;0.88;;
55292;SDS011;41157;53.560;10.098;2022-07-23T00:56:46;1.45;;;0.90;;
55292;SDS011;41157;53.560;10.098;2022-07-23T00:59:12;3.00;;;1.20;;
55292;SDS011;41157;53.560;10.098;2022-07-23T01:01:38;2.28;;;1.10;;
55292;SDS011;41157;53.560;10.098;2022-07-23T01:04:04;3.28;;;1.15;;
55292;SDS011;41157;53.560;10.098;2022-07-23T01:06:34;2.08;;;1.20;;
55292;SDS011;41157;53.560;10.098;2022-07-23T01:09:01;3.80;;;1.20;;
55292;SDS011;41157;53.560;10.098;2022-07-23T01:11:27;2.67;;;1.13;;
55292;SDS011;41157;53.560;10.098;2022-07-23T01:13:53;3.58;;;1.15;;
55292;SDS011;41157;53.560;10.098;2022-07-23T01:16:19;2.40;;;1.30;;
55292;SDS011;41157;53.560;10.098;2022-07-23T01:18:45;4.55;;;1.25;;
55292;SDS011;41157;53.560;10.098;2022-07-23T01:21:11;4.95;;;1.20;;
55292;SDS011;41157;53.560;10.098;2022-07-23T01:23:40;1.58;;;1.10;;
55292;SDS011;41157;53.560;10.098;2022-07-23T01:26:06;3.17;;;1.05;;
55292;SDS011;41157;53.560;10.098;2022-07-23T01:28:32;3.13;;;1.30;;
55292;SDS011;41157;53.560;10.098;2022-07-23T01:30:58;2.42;;;1.00;;
55292;SDS011;41157;53.560;10.098;2022-07-23T01:33:24;2.25;;;0.98;;
55292;SDS011;41157;53.560;10.098;2022-07-23T01:35:50;2.13;;;1.05;;
55292;SDS011;41157;53.560;10.098;2022-07-23T01:38:16;3.80;;;1.38;;
55292;SDS011;41157;53.560;10.098;2022-07-23T01:40:42;1.30;;;0.93;;
55292;SDS011;41157;53.560;10.098;2022-07-23T01:43:08;3.08;;;1.10;;
55292;SDS011;41157;53.560;10.098;2022-07-23T01:45:34;5.20;;;1.27;;
55292;SDS011;41157;53.560;10.098;2022-07-23T01:48:00;4.78;;;1.10;;
55292;SDS011;41157;53.560;10.098;2022-07-23T01:50:26;2.75;;;1.20;;
55292;SDS011;41157;53.560;10.098;2022-07-23T01:52:52;2.58;;;1.00;;
55292;SDS011;41157;53.560;10.098;2022-07-23T01:55:17;4.10;;;1.15;;
55292;SDS011;41157;53.560;10.098;2022-07-23T01:57:43;3.20;;;1.08;;
55292;SDS011;41157;53.560;10.098;2022-07-23T02:00:09;2.03;;;0.90;;
55292;SDS011;41157;53.560;10.098;2022-07-23T02:02:36;2.78;;;1.23;;
55292;SDS011;41157;53.560;10.098;2022-07-23T02:05:02;1.23;;;1.10;;
55292;SDS011;41157;53.560;10.098;2022-07-23T02:07:27;1.63;;;1.10;;
55292;SDS011;41157;53.560;10.098;2022-07-23T02:09:54;1.50;;;1.00;;
55292;SDS011;41157;53.560;10.098;2022-07-23T02:12:19;2.27;;;1.17;;
55292;SDS011;41157;53.560;10.098;2022-07-23T02:14:45;1.27;;;1.17;;
55292;SDS011;41157;53.560;10.098;2022-07-23T02:17:12;3.50;;;1.08;;
55292;SDS011;41157;53.560;10.098;2022-07-23T02:19:38;2.75;;;1.10;;
55292;SDS011;41157;53.560;10.098;2022-07-23T02:22:04;4.07;;;1.10;;
55292;SDS011;41157;53.560;10.098;2022-07-23T02:24:29;1.52;;;0.93;;
55292;SDS011;41157;53.560;10.098;2022-07-23T02:26:55;7.07;;;1.80;;
55292;SDS011;41157;53.560;10.098;2022-07-23T02:29:21;3.00;;;1.00;;
55292;SDS011;41157;53.560;10.098;2022-07-23T02:31:47;4.05;;;1.30;;
55292;SDS011;41157;53.560;10.098;2022-07-23T02:34:13;2.13;;;1.02;;
55292;SDS011;41157;53.560;10.098;2022-07-23T02:36:39;2.13;;;1.20;;
55292;SDS011;41157;53.560;10.098;2022-07-23T02:39:05;1.80;;;1.00;;
55292;SDS011;41157;53.560;10.098;2022-07-23T02:41:31;1.33;;;1.13;;
55292;SDS011;41157;53.560;10.098;2022-07-23T02:43:57;1.58;;;1.00;;
55292;SDS011;41157;53.560;10.098;2022-07-23T02:46:23;2.17;;;1.10;;
55292;SDS011;41157;53.560;10.098;2022-07-23T02:48:49;0.85;;;0.77;;
55292;SDS011;41157;53.560;10.098;2022-07-23T02:51:15;3.03;;;1.27;;
55292;SDS011;41157;53.560;10.098;2022-07-23T02:53:41;1.97;;;0.90;;
55292;SDS011;41157;53.560;10.098;2022-07-23T02:56:07;2.42;;;1.00;;
55292;SDS011;41157;53.560;10.098;2022-07-23T02:58:33;2.75;;;1.05;;
55292;SDS011;41157;53.560;10.098;2022-07-23T03:00:59;2.25;;;0.88;;
55292;SDS011;41157;53.560;10.098;2022-07-23T03:03:25;5.28;;;1.33;;
55292;SDS011;41157;53.560;10.098;2022-07-23T03:05:51;2.80;;;1.30;;
55292;SDS011;41157;53.560;10.098;2022-07-23T03:08:17;4.17;;;1.10;;
55292;SDS011;41157;53.560;10.098;2022-07-23T03:10:43;2.00;;;1.00;;
55292;SDS011;41157;53.560;10.098;2022-07-23T03:13:09;5.60;;;1.10;;
55292;SDS011;41157;53.560;10.098;2022-07-23T03:15:35;3.53;;;0.90;;
55292;SDS011;41157;53.560;10.098;2022-07-23T03:18:01;3.22;;;1.00;;
55292;SDS011;41157;53.560;10.098;2022-07-23T03:20:27;2.13;;;1.13;;
55292;SDS011;41157;53.560;10.098;2022-07-23T03:22:53;2.42;;;1.10;;
55292;SDS011;41157;53.560;10.098;2022-07-23T03:25:19;4.20;;;1.30;;
55292;SDS011;41157;53.560;10.098;2022-07-23T03:27:45;5.00;;;1.30;;
55292;SDS011;41157;53.560;10.098;2022-07-23T03:30:11;4.05;;;1.30;;
55292;SDS011;41157;53.560;10.098;2022-07-23T03:32:37;2.03;;;1.10;;
55292;SDS011;41157;53.560;10.098;2022-07-23T03:35:03;6.05;;;1.92;;
55292;SDS011;41157;53.560;10.098;2022-07-23T03:37:29;4.53;;;1.37;;
55292;SDS011;41157;53.560;10.098;2022-07-23T03:39:55;3.50;;;1.27;;
55292;SDS011;41157;53.560;10.098;2022-07-23T03:42:21;3.43;;;1.47;;
55292;SDS011;41157;53.560;10.098;2022-07-23T03:44:47;3.47;;;0.90;;
55292;SDS011;41157;53.560;10.098;2022-07-23T03:47:13;2.47;;;1.08;;
55292;SDS011;41157;53.560;10.098;2022-07-23T03:49:40;4.33;;;1.40;;
55292;SDS011;41157;53.560;10.098;2022-07-23T03:52:06;3.47;;;1.23;;
55292;SDS011;41157;53.560;10.098;2022-07-23T03:54:32;1.40;;;1.20;;
55292;SDS011;41157;53.560;10.098;2022-07-23T03:56:58;2.37;;;1.00;;
55292;SDS011;41157;53.560;10.098;2022-07-23T03:59:24;5.17;;;1.20;;
55292;SDS011;41157;53.560;10.098;2022-07-23T04:01:50;4.97;;;1.37;;
55292;SDS011;41157;53.560;10.098;2022-07-23T04:04:16;3.00;;;1.20;;
55292;SDS011;41157;53.560;10.098;2022-07-23T04:06:42;3.87;;;1.47;;
55292;SDS011;41157;53.560;10.098;2022-07-23T04:09:08;3.43;;;1.47;;
55292;SDS011;41157;53.560;10.098;2022-07-23T04:11:34;4.90;;;1.37;;
55292;SDS011;41157;53.560;10.098;2022-07-23T04:14:00;4.43;;;1.45;;
55292;SDS011;41157;53.560;10.098;2022-07-23T04:16:26;3.00;;;1.43;;
55292;SDS011;41157;53.560;10.098;2022-07-23T04:18:53;2.33;;;1.13;;
55292;SDS011;41157;53.560;10.098;2022-07-23T04:21:19;8.47;;;1.43;;
55292;SDS011;41157;53.560;10.098;2022-07-23T04:23:45;2.77;;;1.30;;
55292;SDS011;41157;53.560;10.098;2022-07-23T04:26:11;3.07;;;1.20;;
55292;SDS011;41157;53.560;10.098;2022-07-23T04:28:37;2.77;;;1.37;;
55292;SDS011;41157;53.560;10.098;2022-07-23T04:31:03;1.77;;;1.38;;
55292;SDS011;41157;53.560;10.098;2022-07-23T04:33:29;4.43;;;1.43;;
55292;SDS011;41157;53.560;10.098;2022-07-23T04:35:55;3.73;;;1.20;;
55292;SDS011;41157;53.560;10.098;2022-07-23T04:38:21;5.60;;;1.40;;
55292;SDS011;41157;53.560;10.098;2022-07-23T04:40:47;2.97;;;1.27;;
55292;SDS011;41157;53.560;10.098;2022-07-23T04:43:13;3.53;;;1.23;;
55292;SDS011;41157;53.560;10.098;2022-07-23T04:45:39;3.65;;;1.42;;
55292;SDS011;41157;53.560;10.098;2022-07-23T04:48:05;4.28;;;1.20;;
55292;SDS011;41157;53.560;10.098;2022-07-23T04:50:31;3.27;;;1.43;;
55292;SDS011;41157;53.560;10.098;2022-07-23T04:52:57;3.83;;;1.30;;
55292;SDS011;41157;53.560;10.098;2022-07-23T04:55:23;3.90;;;1.60;;
55292;SDS011;41157;53.560;10.098;2022-07-23T04:57:49;3.45;;;1.35;;
55292;SDS011;41157;53.560;10.098;2022-07-23T05:00:15;4.22;;;1.50;;
55292;SDS011;41157;53.560;10.098;2022-07-23T05:02:41;4.03;;;1.23;;
55292;SDS011;41157;53.560;10.098;2022-07-23T05:05:07;2.20;;;1.30;;
55292;SDS011;41157;53.560;10.098;2022-07-23T05:07:33;5.55;;;1.75;;
55292;SDS011;41157;53.560;10.098;2022-07-23T05:09:59;4.25;;;1.50;;
55292;SDS011;41157;53.560;10.098;2022-07-23T05:12:25;4.83;;;1.40;;
55292;SDS011;41157;53.560;10.098;2022-07-23T05:14:51;4.65;;;1.40;;
55292;SDS011;41157;53.560;10.098;2022-07-23T05:17:17;3.38;;;1.40;;
55292;SDS011;41157;53.560;10.098;2022-07-23T05:19:43;1.45;;;1.25;;
55292;SDS011;41157;53.560;10.098;2022-07-23T05:22:09;2.13;;;1.20;;
55292;SDS011;41157;53.560;10.098;2022-07-23T05:24:35;3.47;;;1.40;;
55292;SDS011;41157;53.560;10.098;2022-07-23T05:27:01;3.00;;;1.40;;
55292;SDS011;41157;53.560;10.098;2022-07-23T05:29:27;2.40;;;1.40;;
55292;SDS011;41157;53.560;10.098;2022-07-23T05:31:53;3.50;;;1.25;;
55292;SDS011;41157;53.560;10.098;2022-07-23T05:34:19;2.70;;;1.40;;
55292;SDS011;41157;53.560;10.098;2022-07-23T05:36:45;3.63;;;1.50;;
55292;SDS011;41157;53.560;10.098;2022-07-23T05:39:13;1.50;;;1.23;;
55292;SDS011;41157;53.560;10.098;2022-07-23T05:41:39;2.33;;;1.15;;
55292;SDS011;41157;53.560;10.098;2022-07-23T05:44:05;3.60;;;1.20;;
55292;SDS011;41157;53.560;10.098;2022-07-23T05:46:31;1.38;;;1.10;;
55292;SDS011;41157;53.560;10.098;2022-07-23T05:48:57;1.02;;;0.90;;
55292;SDS011;41157;53.560;10.098;2022-07-23T05:51:23;4.77;;;1.20;;
55292;SDS011;41157;53.560;10.098;2022-07-23T05:53:50;2.75;;;1.00;;
55292;SDS011;41157;53.560;10.098;2022-07-23T05:56:16;3.88;;;1.30;;
55292;SDS011;41157;53.560;10.098;2022-07-23T05:58:42;4.40;;;1.33;;
55292;SDS011;41157;53.560;10.098;2022-07-23T06:01:08;1.55;;;1.13;;
55292;SDS011;41157;53.560;10.098;2022-07-23T06:03:36;1.98;;;1.20;;
55292;SDS011;41157;53.560;10.098;2022-07-23T06:06:02;3.13;;;1.20;;
55292;SDS011;41157;53.560;10.098;2022-07-23T06:08:28;3.25;;;1.33;;
55292;SDS011;41157;53.560;10.098;2022-07-23T06:10:54;2.22;;;1.42;;
55292;SDS011;41157;53.560;10.098;2022-07-23T06:13:20;1.17;;;1.08;;
55292;SDS011;41157;53.560;10.098;2022-07-23T06:15:46;1.92;;;1.38;;
55292;SDS011;41157;53.560;10.098;2022-07-23T06:18:13;4.07;;;1.15;;
55292;SDS011;41157;53.560;10.098;2022-07-23T06:20:39;4.47;;;1.40;;
55292;SDS011;41157;53.560;10.098;2022-07-23T06:23:05;3.05;;;1.08;;
55292;SDS011;41157;53.560;10.098;2022-07-23T06:25:31;2.88;;;1.25;;
55292;SDS011;41157;53.560;10.098;2022-07-23T06:27:57;1.63;;;1.15;;
55292;SDS011;41157;53.560;10.098;2022-07-23T06:30:23;1.85;;;1.10;;
55292;SDS011;41157;53.560;10.098;2022-07-23T06:32:49;3.67;;;1.20;;
55292;SDS011;41157;53.560;10.098;2022-07-23T06:35:15;4.40;;;1.40;;
55292;SDS011;41157;53.560;10.098;2022-07-23T06:37:41;7.10;;;1.30;;
55292;SDS011;41157;53.560;10.098;2022-07-23T06:40:08;4.00;;;1.40;;
55292;SDS011;41157;53.560;10.098;2022-07-23T06:42:34;1.67;;;1.40;;
55292;SDS011;41157;53.560;10.098;2022-07-23T06:45:02;2.47;;;1.30;;
55292;SDS011;41157;53.560;10.098;2022-07-23T06:47:28;4.25;;;1.40;;
55292;SDS011;41157;53.560;10.098;2022-07-23T06:49:54;1.40;;;1.30;;
55292;SDS011;41157;53.560;10.098;2022-07-23T06:52:20;3.83;;;1.40;;
55292;SDS011;41157;53.560;10.098;2022-07-23T06:54:46;2.55;;;1.13;;
55292;SDS011;41157;53.560;10.098;2022-07-23T06:57:12;2.80;;;1.30;;
55292;SDS011;41157;53.560;10.098;2022-07-23T06:59:38;7.63;;;1.90;;
55292;SDS011;41157;53.560;10.098;2022-07-23T07:02:06;5.43;;;1.70;;
55292;SDS011;41157;53.560;10.098;2022-07-23T07:04:34;6.13;;;1.58;;
55292;SDS011;41157;53.560;10.098;2022-07-23T07:07:01;2.03;;;1.65;;
55292;SDS011;41157;53.560;10.098;2022-07-23T07:09:28;3.42;;;1.38;;
55292;SDS011;41157;53.560;10.098;2022-07-23T07:11:59;2.17;;;1.73;;
55292;SDS011;41157;53.560;10.098;2022-07-23T07:14:26;5.07;;;1.30;;
55292;SDS011;41157;53.560;10.098;2022-07-23T07:16:52;5.13;;;1.48;;
55292;SDS011;41157;53.560;10.098;2022-07-23T07:19:18;3.28;;;1.42;;
55292;SDS011;41157;53.560;10.098;2022-07-23T07:21:44;1.55;;;1.40;;
55292;SDS011;41157;53.560;10.098;2022-07-23T07:24:10;5.47;;;1.23;;
55292;SDS011;41157;53.560;10.098;2022-07-23T07:26:39;2.53;;;1.20;;
55292;SDS011;41157;53.560;10.098;2022-07-23T07:29:05;2.03;;;1.30;;
55292;SDS011;41157;53.560;10.098;2022-07-23T07:31:32;1.52;;;1.00;;
55292;SDS011;41157;53.560;10.098;2022-07-23T07:33:58;1.83;;;0.90;;
55292;SDS011;41157;53.560;10.098;2022-07-23T07:36:24;3.33;;;1.10;;
55292;SDS011;41157;53.560;10.098;2022-07-23T07:38:50;6.88;;;1.00;;
55292;SDS011;41157;53.560;10.098;2022-07-23T07:41:16;3.90;;;1.23;;
55292;SDS011;41157;53.560;10.098;2022-07-23T07:43:47;1.08;;;0.98;;
55292;SDS011;41157;53.560;10.098;2022-07-23T07:46:13;2.60;;;0.93;;
55292;SDS011;41157;53.560;10.098;2022-07-23T07:48:39;1.30;;;0.85;;
55292;SDS011;41157;53.560;10.098;2022-07-23T07:51:06;0.73;;;0.73;;
55292;SDS011;41157;53.560;10.098;2022-07-23T07:53:32;0.82;;;0.82;;
55292;SDS011;41157;53.560;10.098;2022-07-23T07:55:58;1.13;;;0.77;;
55292;SDS011;41157;53.560;10.098;2022-07-23T07:58:24;0.63;;;0.63;;
55292;SDS011;41157;53.560;10.098;2022-07-23T08:00:50;3.13;;;0.80;;
55292;SDS011;41157;53.560;10.098;2022-07-23T08:03:16;1.92;;;0.93;;
55292;SDS011;41157;53.560;10.098;2022-07-23T08:05:42;1.52;;;0.75;;
55292;SDS011;41157;53.560;10.098;2022-07-23T08:08:08;4.05;;;0.85;;
55292;SDS011;41157;53.560;10.098;2022-07-23T08:10:39;1.73;;;0.75;;
55292;SDS011;41157;53.560;10.098;2022-07-23T08:13:05;1.85;;;0.77;;
55292;SDS011;41157;53.560;10.098;2022-07-23T08:15:31;0.90;;;0.73;;
55292;SDS011;41157;53.560;10.098;2022-07-23T08:17:57;1.90;;;0.70;;
55292;SDS011;41157;53.560;10.098;2022-07-23T08:20:23;0.75;;;0.50;;
55292;SDS011;41157;53.560;10.098;2022-07-23T08:25:28;3.30;;;0.80;;
55292;SDS011;41157;53.560;10.098;2022-07-23T08:27:55;1.98;;;0.82;;
55292;SDS011;41157;53.560;10.098;2022-07-23T08:30:21;2.65;;;0.95;;
55292;SDS011;41157;53.560;10.098;2022-07-23T08:32:47;1.70;;;0.80;;
55292;SDS011;41157;53.560;10.098;2022-07-23T08:35:14;2.97;;;0.80;;
55292;SDS011;41157;53.560;10.098;2022-07-23T08:37:39;0.60;;;0.60;;
55292;SDS011;41157;53.560;10.098;2022-07-23T08:40:06;0.98;;;0.80;;
55292;SDS011;41157;53.560;10.098;2022-07-23T08:42:32;0.88;;;0.60;;
55292;SDS011;41157;53.560;10.098;2022-07-23T08:45:00;1.52;;;0.90;;
55292;SDS011;41157;53.560;10.098;2022-07-23T08:47:27;0.82;;;0.60;;
55292;SDS011;41157;53.560;10.098;2022-07-23T08:49:53;1.48;;;0.80;;
55292;SDS011;41157;53.560;10.098;2022-07-23T08:52:20;2.85;;;0.93;;
55292;SDS011;41157;53.560;10.098;2022-07-23T08:54:46;3.45;;;0.77;;
55292;SDS011;41157;53.560;10.098;2022-07-23T08:57:12;1.50;;;0.73;;
55292;SDS011;41157;53.560;10.098;2022-07-23T08:59:38;1.33;;;0.90;;
55292;SDS011;41157;53.560;10.098;2022-07-23T09:02:04;1.55;;;0.90;;
55292;SDS011;41157;53.560;10.098;2022-07-23T09:04:30;1.75;;;0.93;;
55292;SDS011;41157;53.560;10.098;2022-07-23T09:06:57;1.20;;;0.77;;
55292;SDS011;41157;53.560;10.098;2022-07-23T09:09:23;2.20;;;0.90;;
55292;SDS011;41157;53.560;10.098;2022-07-23T09:12:04;1.38;;;0.60;;
55292;SDS011;41157;53.560;10.098;2022-07-23T09:14:41;1.95;;;0.75;;
55292;SDS011;41157;53.560;10.098;2022-07-23T09:17:08;1.17;;;1.08;;
55292;SDS011;41157;53.560;10.098;2022-07-23T09:19:34;1.42;;;0.63;;
55292;SDS011;41157;53.560;10.098;2022-07-23T09:22:15;3.10;;;0.90;;
55292;SDS011;41157;53.560;10.098;2022-07-23T09:27:44;0.60;;;0.60;;
55292;SDS011;41157;53.560;10.098;2022-07-23T09:30:11;1.25;;;0.70;;
55292;SDS011;41157;53.560;10.098;2022-07-23T09:32:37;0.80;;;0.80;;
55292;SDS011;41157;53.560;10.098;2022-07-23T09:35:03;0.70;;;0.68;;
55292;SDS011;41157;53.560;10.098;2022-07-23T09:37:29;1.02;;;0.95;;
55292;SDS011;41157;53.560;10.098;2022-07-23T09:40:03;1.50;;;0.70;;
55292;SDS011;41157;53.560;10.098;2022-07-23T09:42:29;3.42;;;0.73;;
55292;SDS011;41157;53.560;10.098;2022-07-23T09:44:56;1.77;;;0.85;;
55292;SDS011;41157;53.560;10.098;2022-07-23T09:47:23;1.38;;;0.60;;
55292;SDS011;41157;53.560;10.098;2022-07-23T09:50:09;1.33;;;0.95;;
55292;SDS011;41157;53.560;10.098;2022-07-23T09:52:44;2.38;;;1.15;;
55292;SDS011;41157;53.560;10.098;2022-07-23T09:55:12;6.88;;;0.95;;
55292;SDS011;41157;53.560;10.098;2022-07-23T09:57:40;4.75;;;1.00;;
55292;SDS011;41157;53.560;10.098;2022-07-23T10:00:07;0.82;;;0.77;;
55292;SDS011;41157;53.560;10.098;2022-07-23T10:02:37;2.25;;;1.20;;
55292;SDS011;41157;53.560;10.098;2022-07-23T10:05:03;0.75;;;0.73;;
55292;SDS011;41157;53.560;10.098;2022-07-23T10:07:31;0.90;;;0.68;;
55292;SDS011;41157;53.560;10.098;2022-07-23T10:09:58;2.38;;;0.80;;
55292;SDS011;41157;53.560;10.098;2022-07-23T10:12:25;2.35;;;0.90;;
55292;SDS011;41157;53.560;10.098;2022-07-23T10:14:59;0.98;;;0.77;;
55292;SDS011;41157;53.560;10.098;2022-07-23T10:17:27;3.13;;;0.95;;
55292;SDS011;41157;53.560;10.098;2022-07-23T10:19:53;2.22;;;0.60;;
55292;SDS011;41157;53.560;10.098;2022-07-23T10:22:20;0.85;;;0.70;;
55292;SDS011;41157;53.560;10.098;2022-07-23T10:27:37;0.75;;;0.75;;
55292;SDS011;41157;53.560;10.098;2022-07-23T10:32:48;0.98;;;0.70;;
55292;SDS011;41157;53.560;10.098;2022-07-23T10:38:02;1.88;;;0.60;;
55292;SDS011;41157;53.560;10.098;2022-07-23T10:40:28;0.90;;;0.60;;
55292;SDS011;41157;53.560;10.098;2022-07-23T10:42:58;5.70;;;0.75;;
55292;SDS011;41157;53.560;10.098;2022-07-23T10:45:31;4.78;;;0.45;;
55292;SDS011;41157;53.560;10.098;2022-07-23T10:48:12;1.20;;;0.68;;
55292;SDS011;41157;53.560;10.098;2022-07-23T10:50:39;4.20;;;0.85;;
55292;SDS011;41157;53.560;10.098;2022-07-23T10:58:00;0.95;;;0.57;;
55292;SDS011;41157;53.560;10.098;2022-07-23T11:00:26;1.15;;;0.70;;
55292;SDS011;41157;53.560;10.098;2022-07-23T11:02:54;0.82;;;0.50;;
55292;SDS011;41157;53.560;10.098;2022-07-23T11:05:24;2.00;;;0.80;;
55292;SDS011;41157;53.560;10.098;2022-07-23T11:10:36;0.82;;;0.50;;
55292;SDS011;41157;53.560;10.098;2022-07-23T11:32:06;1.63;;;0.57;;
55292;SDS011;41157;53.560;10.098;2022-07-23T11:34:33;2.03;;;0.60;;
55292;SDS011;41157;53.560;10.098;2022-07-23T11:37:00;2.90;;;0.60;;
55292;SDS011;41157;53.560;10.098;2022-07-23T11:39:27;1.40;;;0.70;;
55292;SDS011;41157;53.560;10.098;2022-07-23T11:41:54;2.10;;;0.73;;
55292;SDS011;41157;53.560;10.098;2022-07-23T11:47:08;1.75;;;0.60;;
55292;SDS011;41157;53.560;10.098;2022-07-23T11:49:34;1.25;;;0.73;;
55292;SDS011;41157;53.560;10.098;2022-07-23T11:54:30;0.73;;;0.70;;
55292;SDS011;41157;53.560;10.098;2022-07-23T11:56:57;1.15;;;0.50;;
55292;SDS011;41157;53.560;10.098;2022-07-23T11:59:23;1.45;;;0.75;;
55292;SDS011;41157;53.560;10.098;2022-07-23T12:01:59;1.90;;;0.60;;
55292;SDS011;41157;53.560;10.098;2022-07-23T12:04:42;2.40;;;0.60;;
55292;SDS011;41157;53.560;10.098;2022-07-23T12:09:54;0.73;;;0.73;;
55292;SDS011;41157;53.560;10.098;2022-07-23T12:12:20;1.25;;;0.77;;
55292;SDS011;41157;53.560;10.098;2022-07-23T12:14:50;0.85;;;0.65;;
55292;SDS011;41157;53.560;10.098;2022-07-23T12:17:16;3.50;;;1.00;;
55292;SDS011;41157;53.560;10.098;2022-07-23T12:19:43;1.48;;;0.77;;
55292;SDS011;41157;53.560;10.098;2022-07-23T12:22:09;1.10;;;0.73;;
55292;SDS011;41157;53.560;10.098;2022-07-23T12:27:21;1.80;;;1.02;;
55292;SDS011;41157;53.560;10.098;2022-07-23T12:29:47;5.15;;;1.42;;
55292;SDS011;41157;53.560;10.098;2022-07-23T12:32:20;2.60;;;0.70;;
55292;SDS011;41157;53.560;10.098;2022-07-23T12:35:06;1.05;;;0.93;;
55292;SDS011;41157;53.560;10.098;2022-07-23T12:37:37;2.85;;;1.00;;
55292;SDS011;41157;53.560;10.098;2022-07-23T12:40:23;1.02;;;0.90;;
55292;SDS011;41157;53.560;10.098;2022-07-23T12:42:59;1.48;;;1.08;;
55292;SDS011;41157;53.560;10.098;2022-07-23T12:45:26;1.45;;;1.08;;
55292;SDS011;41157;53.560;10.098;2022-07-23T12:47:54;1.88;;;1.17;;
55292;SDS011;41157;53.560;10.098;2022-07-23T12:53:12;2.28;;;1.10;;
55292;SDS011;41157;53.560;10.098;2022-07-23T12:55:39;2.75;;;0.90;;
55292;SDS011;41157;53.560;10.098;2022-07-23T12:58:09;0.80;;;0.70;;
55292;SDS011;41157;53.560;10.098;2022-07-23T13:06:01;3.58;;;1.00;;
55292;SDS011;41157;53.560;10.098;2022-07-23T13:08:28;2.72;;;1.05;;
55292;SDS011;41157;53.560;10.098;2022-07-23T13:10:54;1.58;;;0.80;;
55292;SDS011;41157;53.560;10.098;2022-07-23T13:13:22;2.45;;;0.90;;
55292;SDS011;41157;53.560;10.098;2022-07-23T13:15:48;2.22;;;0.80;;
55292;SDS011;41157;53.560;10.098;2022-07-23T13:18:14;2.15;;;1.05;;
55292;SDS011;41157;53.560;10.098;2022-07-23T13:20:41;0.95;;;0.70;;
55292;SDS011;41157;53.560;10.098;2022-07-23T13:23:07;2.42;;;0.90;;
55292;SDS011;41157;53.560;10.098;2022-07-23T13:25:33;3.72;;;1.20;;
55292;SDS011;41157;53.560;10.098;2022-07-23T13:27:59;3.42;;;0.93;;
55292;SDS011;41157;53.560;10.098;2022-07-23T13:30:26;1.10;;;1.00;;
55292;SDS011;41157;53.560;10.098;2022-07-23T13:32:52;2.25;;;0.90;;
55292;SDS011;41157;53.560;10.098;2022-07-23T13:35:18;0.95;;;0.85;;
55292;SDS011;41157;53.560;10.098;2022-07-23T13:37:44;1.30;;;0.82;;
55292;SDS011;41157;53.560;10.098;2022-07-23T13:40:10;1.33;;;0.90;;
55292;SDS011;41157;53.560;10.098;2022-07-23T13:42:36;4.57;;;0.95;;
55292;SDS011;41157;53.560;10.098;2022-07-23T13:45:03;2.75;;;0.85;;
55292;SDS011;41157;53.560;10.098;2022-07-23T13:47:29;0.70;;;0.70;;
55292;SDS011;41157;53.560;10.098;2022-07-23T13:49:55;1.70;;;0.85;;
55292;SDS011;41157;53.560;10.098;2022-07-23T13:52:21;2.03;;;1.00;;
55292;SDS011;41157;53.560;10.098;2022-07-23T13:54:47;2.22;;;0.98;;
55292;SDS011;41157;53.560;10.098;2022-07-23T13:57:13;1.10;;;0.90;;
55292;SDS011;41157;53.560;10.098;2022-07-23T13:59:39;2.22;;;1.00;;
55292;SDS011;41157;53.560;10.098;2022-07-23T14:02:05;1.10;;;0.70;;
55292;SDS011;41157;53.560;10.098;2022-07-23T14:04:31;3.65;;;0.77;;
55292;SDS011;41157;53.560;10.098;2022-07-23T14:06:57;0.70;;;0.70;;
55292;SDS011;41157;53.560;10.098;2022-07-23T14:09:24;2.55;;;0.80;;
55292;SDS011;41157;53.560;10.098;2022-07-23T14:11:50;1.08;;;0.88;;
55292;SDS011;41157;53.560;10.098;2022-07-23T14:14:16;2.17;;;1.00;;
55292;SDS011;41157;53.560;10.098;2022-07-23T14:16:43;1.88;;;0.75;;
55292;SDS011;41157;53.560;10.098;2022-07-23T14:19:09;0.90;;;0.90;;
55292;SDS011;41157;53.560;10.098;2022-07-23T14:21:35;4.55;;;1.10;;
55292;SDS011;41157;53.560;10.098;2022-07-23T14:24:01;1.40;;;1.20;;
55292;SDS011;41157;53.560;10.098;2022-07-23T14:26:27;4.00;;;1.17;;
55292;SDS011;41157;53.560;10.098;2022-07-23T14:28:54;0.93;;;0.77;;
55292;SDS011;41157;53.560;10.098;2022-07-23T14:31:20;1.35;;;0.70;;
55292;SDS011;41157;53.560;10.098;2022-07-23T14:33:47;0.70;;;0.70;;
55292;SDS011;41157;53.560;10.098;2022-07-23T14:36:13;1.00;;;0.90;;
55292;SDS011;41157;53.560;10.098;2022-07-23T14:38:39;1.45;;;0.70;;
55292;SDS011;41157;53.560;10.098;2022-07-23T14:41:05;3.85;;;1.45;;
55292;SDS011;41157;53.560;10.098;2022-07-23T14:43:33;1.10;;;0.80;;
55292;SDS011;41157;53.560;10.098;2022-07-23T14:45:59;0.93;;;0.65;;
55292;SDS011;41157;53.560;10.098;2022-07-23T14:48:25;1.02;;;0.80;;
55292;SDS011;41157;53.560;10.098;2022-07-23T14:50:51;1.35;;;0.80;;
55292;SDS011;41157;53.560;10.098;2022-07-23T14:53:17;2.05;;;1.13;;
55292;SDS011;41157;53.560;10.098;2022-07-23T14:55:43;0.80;;;0.80;;
55292;SDS011;41157;53.560;10.098;2022-07-23T14:58:09;3.10;;;0.93;;
55292;SDS011;41157;53.560;10.098;2022-07-23T15:00:35;2.10;;;0.90;;
55292;SDS011;41157;53.560;10.098;2022-07-23T15:03:01;2.38;;;1.80;;
55292;SDS011;41157;53.560;10.098;2022-07-23T15:05:27;1.58;;;0.95;;
55292;SDS011;41157;53.560;10.098;2022-07-23T15:07:54;1.65;;;1.10;;
55292;SDS011;41157;53.560;10.098;2022-07-23T15:10:20;1.77;;;0.90;;
55292;SDS011;41157;53.560;10.098;2022-07-23T15:12:46;1.58;;;0.82;;
55292;SDS011;41157;53.560;10.098;2022-07-23T15:15:12;3.05;;;0.80;;
55292;SDS011;41157;53.560;10.098;2022-07-23T15:17:38;2.08;;;0.70;;
55292;SDS011;41157;53.560;10.098;2022-07-23T15:20:05;1.33;;;1.20;;
55292;SDS011;41157;53.560;10.098;2022-07-23T15:22:31;1.83;;;1.40;;
55292;SDS011;41157;53.560;10.098;2022-07-23T15:24:57;1.60;;;1.00;;
55292;SDS011;41157;53.560;10.098;2022-07-23T15:27:23;2.85;;;1.58;;
55292;SDS011;41157;53.560;10.098;2022-07-23T15:29:49;2.30;;;1.40;;